Lambert St Louis International Airport
KSTL : now visible

Airfield :











YOU CAN JOIN US ON...

 
LOGIN :

Register | Disclaimer

   EN    FR    IT 

 









Legend :    VFR   Marginal VFR   IFR   Intensive IFR   Very Intensive IFR
Visi :
Ceiling :
>= 8 km
>= 3000ft
5 to 8 km
1000 to 3000 ft
1500m to 5 km
500 to 1000 ft
800 to 1500m
200 to 500 ft
< 800m
< 200 ft
Symbols :   Thunderstorms  Fog  Heavy snow  Heavy precipitations  Wind > 20 kt






- Airport Elevation : 618 ft
- IATA code : STL


KSTL - Lambert St Louis International

CURRENT METAR :
  • 180551Z 26008KT 10SM OVC027 02/M02 A2990 RMK AO2 SLP132 60001 T00171017 10017 20006 400441006 53004

EXPIRED METARs :
  • 180451Z 27005KT 10SM OVC032 01/M02 A2988 RMK AO2 SLP128 T00111017
  • 180351Z 28004KT 9SM OVC033 01/M02 A2988 RMK AO2 SNE50 SLP128 P0000 T00111022

TAF KSTL
Valid from the 18 at 06:00 until the 19 at 12:00 UTC


180520Z 1806/1912 29005KT P6SM OVC035
FM182200 16005KT P6SM VCSH OVC030
FM190200 05005KT P6SM VCSH OVC015
FM190600 36006KT P6SM OVC007
KZKC FIR / North America



MET'MAP, your aeronautical weather chart ! - Copyright ORBIFLY December 2007 - Disclaimer

ORBIFLY MET'MAP TEAM :

Programming & Development : Alexandra Zaïnal
Concept & original design : Baudouin d'Aumeries
Assistance for programming : Marc-Olivier Méhu
Technical & hardware support : Manuel Goepfert

Contact : metmap@orbifly.com




SOURCES & CREDITS :

   NOAA       Earth
Advisory